Flight Track Log - Related Links

Times and Time Zones

All times are in EDT time to prevent confusion due to time zone crossing. See the KAL61 flight status page for this flight to view local times or setup timezone preferences in your user account.

Time Position Orientation Groundspeed Altitude Reporting Facility
EDT Latitude Longitude Course Direction KTS MPH feet Rate Location/Type
Mon 10:20:45 PM 33.9500 -118.4667 140° Southeast 189 217 1,800  Level Southern TRACON
Mon 10:21:10 PM 33.9347 -118.4897 231° Southwest 188 216 2,500 1,379 Climbing Los Center
Mon 10:22:12 PM 33.8928 -118.5378 224° Southwest 208 239 3,800 1,161 Climbing Los Center
Mon 10:23:14 PM 33.8278 -118.5431 184° South 275 316 4,900 1,854 Climbing Los Center
Mon 10:24:15 PM 33.7253 -118.5253 172° South 314 361 7,600 2,115 Climbing Los Center
Mon 10:25:16 PM 33.6786 -118.4619 132° Southeast 340 391 9,200 1,854 Climbing Los Center
Mon 10:26:00 PM 33.5363 -117.7696 140° Southeast  Level FlightAware
Mon 10:26:18 PM 33.6508 -118.3300 104° East 347 399 11,400  Level Los Center
Mon 10:27:20 PM 33.6256 -118.2064 104° East 383 441 13,500 2,146 Climbing Los Center
Mon 10:28:21 PM 33.5983 -118.0764 104° East 401 461 15,800 2,390 Climbing Los Center
Mon 10:29:23 PM 33.5642 -117.9111 104° East 422 486 18,400 2,371 Climbing Los Center
Mon 10:30:25 PM 33.5322 -117.7686 105° East 440 506 20,700 2,000 Climbing Los Center
Mon 10:31:26 PM 33.4864 -117.6272 111° Southeast 452 520 22,500 1,659 Climbing Los Center
Mon 10:32:28 PM 33.4372 -117.4839 112° Southeast 468 539 24,100 1,610 Climbing Los Center
Mon 10:33:29 PM 33.3878 -117.3336 111° Southeast 485 558 25,800 1,561 Climbing Los Center
Mon 10:34:31 PM 33.3386 -117.1825 111° Southeast 490 564 27,300 1,463 Climbing Los Center
Mon 10:35:32 PM 33.2839 -117.0217 112° Southeast 503 579 28,800 1,366 Climbing Los Center
Mon 10:36:34 PM 33.2311 -116.8628 112° Southeast 513 590 30,100 1,065 Climbing Los Center
Mon 10:37:36 PM 33.1811 -116.7019 110° East 518 596 31,000 976 Climbing Los Center
Mon 10:38:37 PM 33.1047 -116.5142 116° Southeast 524 603 32,100 976 Climbing Los Center
Mon 10:39:39 PM 33.0333 -116.3747 121° Southeast 526 605 33,000 439 Climbing Los Center
Mon 10:40:40 PM 32.9586 -116.2286 121° Southeast 521 600 33,000 -49 Level Los Center
Mon 10:41:42 PM 32.8725 -116.0689 123° Southeast 514 592 32,900 -48 Descending Los Center
Mon 10:42:44 PM 32.7969 -115.9261 122° Southeast 510 587 32,900  Level Los Center
Mon 10:43:45 PM 32.7214 -115.7842 122° Southeast 507 583 32,900  Level Los Center
Mon 10:45:00 PM 32.6062 -115.6353 124° Southeast  Level FlightAware
Mon 10:52:00 PM 32.0793 -114.7130 124° Southeast  Level FlightAware
Mon 10:53:00 PM 32.0035 -114.5821 124° Southeast  Level FlightAware
Mon 10:54:00 PM 31.9275 -114.4514 124° Southeast  Level FlightAware
Mon 10:55:00 PM 31.8514 -114.3209 124° Southeast  Level FlightAware
Mon 10:56:00 PM 31.7752 -114.1907 125° Southeast  Level FlightAware
Mon 10:57:00 PM 31.6989 -114.0607 125° Southeast  Level FlightAware
Mon 10:58:00 PM 31.6224 -113.9309 125° Southeast  Level FlightAware
Mon 10:59:00 PM 31.5458 -113.8013 125° Southeast  Level FlightAware
Mon 11:00:00 PM 31.4690 -113.6719 125° Southeast  Level FlightAware
Mon 11:01:00 PM 31.3921 -113.5427 125° Southeast  Level FlightAware
Mon 11:02:00 PM 31.3211 -113.4092 120° Southeast  Level FlightAware
Mon 11:03:00 PM 31.2529 -113.2738 120° Southeast  Level FlightAware
Mon 11:04:00 PM 31.1845 -113.1385 121° Southeast  Level FlightAware
Mon 11:05:00 PM 31.1160 -113.0034 121° Southeast  Level FlightAware
Mon 11:06:00 PM 31.0473 -112.8685 121° Southeast  Level FlightAware
Mon 11:07:00 PM 30.9785 -112.7338 121° Southeast  Level FlightAware
Mon 11:08:00 PM 30.9096 -112.5993 121° Southeast  Level FlightAware
Mon 11:09:00 PM 30.8402 -112.4653 122° Southeast  Level FlightAware
Mon 11:10:00 PM 30.7684 -112.3330 122° Southeast  Level FlightAware
Mon 11:11:00 PM 30.6966 -112.2009 122° Southeast  Level FlightAware
Mon 11:12:00 PM 30.6245 -112.0690 122° Southeast  Level FlightAware
Mon 11:13:00 PM 30.5524 -111.9373 122° Southeast  Level FlightAware
Mon 11:14:00 PM 30.4801 -111.8058 123° Southeast  Level FlightAware
Mon 11:15:00 PM 30.4077 -111.6745 123° Southeast  Level FlightAware
Mon 11:16:00 PM 30.3351 -111.5434 123° Southeast  Level FlightAware
Mon 11:17:00 PM 30.2624 -111.4125 123° Southeast  Level FlightAware
Mon 11:18:00 PM 30.1896 -111.2818 123° Southeast  Level FlightAware
Mon 11:19:00 PM 30.1166 -111.1513 123° Southeast  Level FlightAware
Mon 11:20:00 PM 30.0436 -111.0210 123° Southeast  Level FlightAware
Mon 11:21:00 PM 29.9704 -110.8908 123° Southeast  Level FlightAware
Mon 11:22:00 PM 29.8970 -110.7609 123° Southeast  Level FlightAware
Mon 11:23:00 PM 29.8236 -110.6311 123° Southeast  Level FlightAware
Mon 11:24:00 PM 29.7500 -110.5015 123° Southeast  Level FlightAware
Mon 11:25:00 PM 29.6763 -110.3722 123° Southeast  Level FlightAware
Mon 11:26:00 PM 29.6024 -110.2430 123° Southeast  Level FlightAware
Mon 11:27:00 PM 29.5285 -110.1140 123° Southeast  Level FlightAware
Mon 11:28:00 PM 29.4544 -109.9852 123° Southeast  Level FlightAware
Mon 11:29:00 PM 29.3802 -109.8566 123° Southeast  Level FlightAware
Mon 11:30:00 PM 29.3059 -109.7281 124° Southeast  Level FlightAware
Mon 11:31:00 PM 29.2314 -109.5999 124° Southeast  Level FlightAware
Mon 11:32:00 PM 29.1568 -109.4718 124° Southeast  Level FlightAware
Mon 11:33:00 PM 29.0821 -109.3440 124° Southeast  Level FlightAware
Mon 11:34:00 PM 29.0073 -109.2163 124° Southeast  Level FlightAware
Mon 11:35:00 PM 28.9324 -109.0888 124° Southeast  Level FlightAware
Mon 11:36:00 PM 28.8573 -108.9615 124° Southeast  Level FlightAware
Mon 11:37:00 PM 28.7821 -108.8343 124° Southeast  Level FlightAware
Mon 11:38:00 PM 28.7068 -108.7074 124° Southeast  Level FlightAware
Mon 11:39:00 PM 28.6314 -108.5806 124° Southeast  Level FlightAware
Mon 11:40:00 PM 28.5564 -108.4536 123° Southeast  Level FlightAware
Mon 11:41:00 PM 28.4823 -108.3261 123° Southeast  Level FlightAware
Mon 11:42:00 PM 28.4080 -108.1987 124° Southeast  Level FlightAware
Mon 11:43:00 PM 28.3335 -108.0715 124° Southeast  Level FlightAware
Mon 11:44:00 PM 28.2590 -107.9445 124° Southeast  Level FlightAware
Mon 11:45:00 PM 28.1844 -107.8177 124° Southeast  Level FlightAware
Mon 11:46:00 PM 28.1096 -107.6911 124° Southeast  Level FlightAware
Mon 11:47:00 PM 28.0348 -107.5646 124° Southeast  Level FlightAware
Mon 11:48:00 PM 27.9598 -107.4383 124° Southeast  Level FlightAware
Mon 11:49:00 PM 27.8847 -107.3122 124° Southeast  Level FlightAware
Mon 11:50:00 PM 27.8095 -107.1862 124° Southeast  Level FlightAware
Mon 11:51:00 PM 27.7341 -107.0605 124° Southeast  Level FlightAware
Mon 11:52:00 PM 27.6587 -106.9349 124° Southeast  Level FlightAware
Mon 11:53:00 PM 27.5831 -106.8095 124° Southeast  Level FlightAware
Mon 11:54:00 PM 27.5074 -106.6842 124° Southeast  Level FlightAware
Mon 11:55:00 PM 27.4317 -106.5591 124° Southeast  Level FlightAware
Mon 11:56:00 PM 27.3558 -106.4342 124° Southeast  Level FlightAware
Mon 11:57:00 PM 27.2798 -106.3095 124° Southeast  Level FlightAware
Mon 11:58:00 PM 27.2036 -106.1849 124° Southeast  Level FlightAware
Mon 11:59:00 PM 27.1274 -106.0605 125° Southeast  Level FlightAware
Tue 12:00:00 AM 27.0511 -105.9363 125° Southeast  Level FlightAware
Tue 12:01:00 AM 26.9746 -105.8123 125° Southeast  Level FlightAware
Tue 12:02:00 AM 26.8981 -105.6884 125° Southeast  Level FlightAware
Tue 12:03:00 AM 26.8214 -105.5647 125° Southeast  Level FlightAware
Tue 12:04:00 AM 26.7446 -105.4411 125° Southeast  Level FlightAware
Tue 12:05:00 AM 26.6678 -105.3177 125° Southeast  Level FlightAware
Tue 12:06:00 AM 26.5908 -105.1945 125° Southeast  Level FlightAware
Tue 12:07:00 AM 26.5137 -105.0715 125° Southeast  Level FlightAware
Tue 12:08:00 AM 26.4365 -104.9486 125° Southeast  Level FlightAware
Tue 12:09:00 AM 26.3592 -104.8259 125° Southeast  Level FlightAware
Tue 12:10:00 AM 26.2818 -104.7033 125° Southeast  Level FlightAware
Tue 12:11:00 AM 26.2043 -104.5809 125° Southeast  Level FlightAware
Tue 12:12:00 AM 26.1267 -104.4587 125° Southeast  Level FlightAware
Tue 12:13:00 AM 26.0490 -104.3366 125° Southeast  Level FlightAware
Tue 12:14:00 AM 25.9711 -104.2147 125° Southeast  Level FlightAware
Tue 12:15:00 AM 25.8932 -104.0929 125° Southeast  Level FlightAware
Tue 12:16:00 AM 25.8152 -103.9714 125° Southeast  Level FlightAware
Tue 12:17:00 AM 25.7371 -103.8499 126° Southeast  Level FlightAware
Tue 12:18:00 AM 25.6589 -103.7287 126° Southeast  Level FlightAware
Tue 12:19:00 AM 25.5805 -103.6076 126° Southeast  Level FlightAware
Tue 12:20:00 AM 25.5021 -103.4866 126° Southeast  Level FlightAware
Tue 12:21:00 AM 25.4215 -103.3675 127° Southeast  Level FlightAware
Tue 12:22:00 AM 25.3407 -103.2487 127° Southeast  Level FlightAware
Tue 12:23:00 AM 25.2599 -103.1300 127° Southeast  Level FlightAware
Tue 12:24:00 AM 25.1796 -103.0108 126° Southeast  Level FlightAware
Tue 12:25:00 AM 25.1001 -102.8911 126° Southeast  Level FlightAware
Tue 12:26:00 AM 25.0206 -102.7716 126° Southeast  Level FlightAware
Tue 12:27:00 AM 24.9409 -102.6522 126° Southeast  Level FlightAware
Tue 12:28:00 AM 24.8611 -102.5330 126° Southeast  Level FlightAware
Tue 12:29:00 AM 24.7815 -102.4137 126° Southeast  Level FlightAware
Tue 12:30:00 AM 24.7020 -102.2943 126° Southeast  Level FlightAware
Tue 12:31:00 AM 24.6225 -102.1751 126° Southeast  Level FlightAware
Tue 12:32:00 AM 24.5432 -102.0559 125° Southeast  Level FlightAware
Tue 12:33:00 AM 24.4662 -101.9349 125° Southeast  Level FlightAware
Tue 12:34:00 AM 24.3891 -101.8139 125° Southeast  Level FlightAware
Tue 12:35:00 AM 24.3119 -101.6932 125° Southeast  Level FlightAware
Tue 12:36:00 AM 24.2347 -101.5726 125° Southeast  Level FlightAware
Tue 12:37:00 AM 24.1556 -101.4536 133° Southeast  Level FlightAware
Tue 12:38:00 AM 24.0644 -101.3455 133° Southeast  Level FlightAware
Tue 12:39:00 AM 23.9730 -101.2376 133° Southeast  Level FlightAware
Tue 12:40:00 AM 23.8816 -101.1299 133° Southeast  Level FlightAware
Tue 12:41:00 AM 23.7901 -101.0223 133° Southeast  Level FlightAware
Tue 12:42:00 AM 23.6985 -100.9148 132° Southeast  Level FlightAware
Tue 12:43:00 AM 23.6094 -100.8050 132° Southeast  Level FlightAware
Tue 12:44:00 AM 23.5202 -100.6953 132° Southeast  Level FlightAware
Tue 12:45:00 AM 23.4301 -100.5869 131° Southeast  Level FlightAware
Tue 12:46:00 AM 23.3425 -100.4758 131° Southeast  Level FlightAware
Tue 12:47:00 AM 23.2549 -100.3649 131° Southeast  Level FlightAware
Tue 12:48:00 AM 23.1669 -100.2544 131° Southeast  Level FlightAware
Tue 12:49:00 AM 23.0785 -100.1443 133° Southeast  Level FlightAware
Tue 12:50:00 AM 22.9868 -100.0376 133° Southeast  Level FlightAware
Tue 12:51:00 AM 22.8950 -99.9310 133° Southeast  Level FlightAware
Tue 12:52:00 AM 22.8032 -99.8245 133° Southeast  Level FlightAware
Tue 12:53:00 AM 22.7113 -99.7182 133° Southeast  Level FlightAware
Tue 12:54:00 AM 22.6207 -99.6106 132° Southeast  Level FlightAware
Tue 12:55:00 AM 22.5314 -99.5019 132° Southeast  Level FlightAware
Tue 12:56:00 AM 22.4420 -99.3933 132° Southeast  Level FlightAware
Tue 12:57:00 AM 22.3525 -99.2849 132° Southeast  Level FlightAware
Tue 12:58:00 AM 22.2630 -99.1765 132° Southeast  Level FlightAware
Tue 12:59:00 AM 22.1734 -99.0684 132° Southeast  Level FlightAware
Tue 01:00:00 AM 22.0835 -98.9605 132° Southeast  Level FlightAware
Tue 01:01:00 AM 21.9930 -98.8533 132° Southeast  Level FlightAware
Tue 01:02:00 AM 21.9026 -98.7462 132° Southeast  Level FlightAware
Tue 01:03:00 AM 21.8120 -98.6392 132° Southeast  Level FlightAware
Tue 01:04:00 AM 21.7214 -98.5323 132° Southeast  Level FlightAware
Tue 01:05:00 AM 21.6307 -98.4256 132° Southeast  Level FlightAware
Tue 01:06:00 AM 21.5400 -98.3190 132° Southeast  Level FlightAware
Tue 01:07:00 AM 21.4492 -98.2126 132° Southeast  Level FlightAware
Tue 01:08:00 AM 21.3583 -98.1062 133° Southeast  Level FlightAware
Tue 01:09:00 AM 21.2673 -98.0001 133° Southeast  Level FlightAware
Tue 01:10:00 AM 21.1763 -97.8940 133° Southeast  Level FlightAware
Tue 01:11:00 AM 21.0852 -97.7881 133° Southeast  Level FlightAware
Tue 01:12:00 AM 20.9940 -97.6823 133° Southeast  Level FlightAware
Tue 01:13:00 AM 20.9028 -97.5766 133° Southeast  Level FlightAware
Tue 01:14:00 AM 20.8116 -97.4711 133° Southeast  Level FlightAware
Tue 01:15:00 AM 20.7202 -97.3656 133° Southeast  Level FlightAware
Tue 01:16:00 AM 20.6288 -97.2604 133° Southeast  Level FlightAware
Tue 01:17:00 AM 20.5373 -97.1552 133° Southeast  Level FlightAware
Tue 01:18:00 AM 20.4458 -97.0502 133° Southeast  Level FlightAware
Tue 01:19:00 AM 20.3542 -96.9453 133° Southeast  Level FlightAware
Tue 01:20:00 AM 20.2630 -96.8401 132° Southeast  Level FlightAware
Tue 01:21:00 AM 20.1762 -96.7310 125° Southeast  Level FlightAware
Tue 01:22:00 AM 20.0983 -96.6144 128° Southeast  Level FlightAware
Tue 01:23:00 AM 20.0149 -96.5023 128° Southeast  Level FlightAware
Tue 01:24:00 AM 19.9313 -96.3903 128° Southeast  Level FlightAware
Tue 01:25:00 AM 19.8477 -96.2784 128° Southeast  Level FlightAware
Tue 01:26:00 AM 19.7641 -96.1666 128° Southeast  Level FlightAware
Tue 01:27:00 AM 19.6804 -96.0549 129° Southeast  Level FlightAware
Tue 01:28:00 AM 19.5966 -95.9434 129° Southeast  Level FlightAware
Tue 01:29:00 AM 19.5127 -95.8319 129° Southeast  Level FlightAware
Tue 01:30:00 AM 19.4287 -95.7206 129° Southeast  Level FlightAware
Tue 01:31:00 AM 19.3447 -95.6094 129° Southeast  Level FlightAware
Tue 01:32:00 AM 19.2607 -95.4984 129° Southeast  Level FlightAware
Tue 01:33:00 AM 19.1765 -95.3874 129° Southeast  Level FlightAware
Tue 01:34:00 AM 19.0923 -95.2765 129° Southeast  Level FlightAware
Tue 01:35:00 AM 19.0081 -95.1658 129° Southeast  Level FlightAware
Tue 01:36:00 AM 18.9239 -95.0550 129° Southeast  Level FlightAware
Tue 01:37:00 AM 18.8397 -94.9444 129° Southeast  Level FlightAware
Tue 01:38:00 AM 18.7554 -94.8338 129° Southeast  Level FlightAware
Tue 01:39:00 AM 18.6711 -94.7233 129° Southeast  Level FlightAware
Tue 01:40:00 AM 18.5867 -94.6129 129° Southeast  Level FlightAware
Tue 01:41:00 AM 18.5023 -94.5027 129° Southeast  Level FlightAware
Tue 01:42:00 AM 18.4177 -94.3925 129° Southeast  Level FlightAware
Tue 01:43:00 AM 18.3332 -94.2825 129° Southeast  Level FlightAware
Tue 01:44:00 AM 18.2485 -94.1726 129° Southeast  Level FlightAware
Tue 01:45:00 AM 18.1638 -94.0628 129° Southeast  Level FlightAware
Tue 01:46:00 AM 18.0790 -93.9530 129° Southeast  Level FlightAware
Tue 01:47:00 AM 17.9942 -93.8434 129° Southeast  Level FlightAware
Tue 01:48:00 AM 17.9093 -93.7339 129° Southeast  Level FlightAware
Tue 01:49:00 AM 17.8244 -93.6245 129° Southeast  Level FlightAware
Tue 01:50:00 AM 17.7393 -93.5152 129° Southeast  Level FlightAware
Tue 01:51:00 AM 17.6543 -93.4061 129° Southeast  Level FlightAware
Tue 01:52:00 AM 17.5691 -93.2970 129° Southeast  Level FlightAware
Tue 01:53:00 AM 17.4839 -93.1880 129° Southeast  Level FlightAware
Tue 01:54:00 AM 17.3987 -93.0791 129° Southeast  Level FlightAware
Tue 01:55:00 AM 17.3134 -92.9703 129° Southeast  Level FlightAware
Tue 01:56:00 AM 17.2280 -92.8616 129° Southeast  Level FlightAware
Tue 01:57:00 AM 17.1426 -92.7531 129° Southeast  Level FlightAware
Tue 01:58:00 AM 17.0571 -92.6446 129° Southeast  Level FlightAware
Tue 01:59:00 AM 16.9715 -92.5362 130° Southeast  Level FlightAware
Tue 02:00:00 AM 16.8859 -92.4279 130° Southeast  Level FlightAware
Tue 02:01:00 AM 16.8003 -92.3197 130° Southeast  Level FlightAware
Tue 02:02:00 AM 16.7146 -92.2116 130° Southeast  Level FlightAware
Tue 02:03:00 AM 16.6288 -92.1037 130° Southeast  Level FlightAware
Tue 02:04:00 AM 16.5429 -91.9958 130° Southeast  Level FlightAware
Tue 02:05:00 AM 16.4571 -91.8880 130° Southeast  Level FlightAware
Tue 02:06:00 AM 16.3711 -91.7803 130° Southeast  Level FlightAware
Tue 02:07:00 AM 16.2851 -91.6727 130° Southeast  Level FlightAware
Tue 02:08:00 AM 16.1991 -91.5651 130° Southeast  Level FlightAware
Tue 02:09:00 AM 16.1130 -91.4577 130° Southeast  Level FlightAware
Tue 02:10:00 AM 16.0270 -91.3502 130° Southeast  Level FlightAware
Tue 02:11:00 AM 15.9412 -91.2427 130° Southeast  Level FlightAware
Tue 02:12:00 AM 15.8553 -91.1352 130° Southeast  Level FlightAware
Tue 02:13:00 AM 15.7694 -91.0278 130° Southeast  Level FlightAware
Tue 02:14:00 AM 15.6835 -90.9204 130° Southeast  Level FlightAware
Tue 02:15:00 AM 15.5975 -90.8132 130° Southeast  Level FlightAware
Tue 02:16:00 AM 15.5114 -90.7061 130° Southeast  Level FlightAware
Tue 02:17:00 AM 15.4253 -90.5991 130° Southeast  Level FlightAware
Tue 02:18:00 AM 15.3391 -90.4921 130° Southeast  Level FlightAware
Tue 02:19:00 AM 15.2529 -90.3852 130° Southeast  Level FlightAware
Tue 02:20:00 AM 15.1666 -90.2785 130° Southeast  Level FlightAware
Tue 02:21:00 AM 15.0803 -90.1718 130° Southeast  Level FlightAware
Tue 02:22:00 AM 14.9939 -90.0652 130° Southeast  Level FlightAware
Tue 02:23:00 AM 14.9075 -89.9587 130° Southeast  Level FlightAware
Tue 02:24:00 AM 14.8210 -89.8522 130° Southeast  Level FlightAware
Tue 02:25:00 AM 14.7345 -89.7459 130° Southeast  Level FlightAware
Tue 02:26:00 AM 14.6480 -89.6396 130° Southeast  Level FlightAware
Tue 02:27:00 AM 14.5614 -89.5334 130° Southeast  Level FlightAware
Tue 02:28:00 AM 14.4747 -89.4274 130° Southeast  Level FlightAware
Tue 02:29:00 AM 14.3880 -89.3213 130° Southeast  Level FlightAware
Tue 02:30:00 AM 14.3012 -89.2154 130° Southeast  Level FlightAware
Tue 02:31:00 AM 14.2144 -89.1096 130° Southeast  Level FlightAware
Tue 02:32:00 AM 14.1276 -89.0038 130° Southeast  Level FlightAware
Tue 02:33:00 AM 14.0407 -88.8981 130° Southeast  Level FlightAware
Tue 02:34:00 AM 13.9537 -88.7925 130° Southeast  Level FlightAware
Tue 02:35:00 AM 13.8667 -88.6870 130° Southeast  Level FlightAware
Tue 02:36:00 AM 13.7799 -88.5814 130° Southeast  Level FlightAware
Tue 02:37:00 AM 13.6930 -88.4759 130° Southeast  Level FlightAware
Tue 02:38:00 AM 13.6060 -88.3705 130° Southeast  Level FlightAware
Tue 02:39:00 AM 13.5190 -88.2651 130° Southeast  Level FlightAware
Tue 02:40:00 AM 13.4319 -88.1598 130° Southeast  Level FlightAware
Tue 02:41:00 AM 13.3448 -88.0546 130° Southeast  Level FlightAware
Tue 02:42:00 AM 13.2577 -87.9495 130° Southeast  Level FlightAware
Tue 02:43:00 AM 13.1705 -87.8445 130° Southeast  Level FlightAware
Tue 02:44:00 AM 13.0833 -87.7395 130° Southeast  Level FlightAware
Tue 02:45:00 AM 12.9961 -87.6346 130° Southeast  Level FlightAware
Tue 02:46:00 AM 12.9088 -87.5297 131° Southeast  Level FlightAware
Tue 02:47:00 AM 12.8214 -87.4250 131° Southeast  Level FlightAware
Tue 02:48:00 AM 12.7340 -87.3203 131° Southeast  Level FlightAware
Tue 02:49:00 AM 12.6466 -87.2157 131° Southeast  Level FlightAware
Tue 02:50:00 AM 12.5591 -87.1112 131° Southeast  Level FlightAware
Tue 02:51:00 AM 12.4716 -87.0067 131° Southeast  Level FlightAware
Tue 02:52:00 AM 12.3841 -86.9023 131° Southeast  Level FlightAware
Tue 02:53:00 AM 12.2965 -86.7980 131° Southeast  Level FlightAware
Tue 02:54:00 AM 12.2088 -86.6937 131° Southeast  Level FlightAware
Tue 02:55:00 AM 12.1212 -86.5895 131° Southeast  Level FlightAware
Tue 02:56:00 AM 12.0335 -86.4854 131° Southeast  Level FlightAware
Tue 02:57:00 AM 11.9457 -86.3813 131° Southeast  Level FlightAware
Tue 02:58:00 AM 11.8573 -86.2779 131° Southeast  Level FlightAware
Tue 02:59:00 AM 11.7688 -86.1747 131° Southeast  Level FlightAware
Tue 03:00:00 AM 11.6802 -86.0714 131° Southeast  Level FlightAware
Tue 03:01:00 AM 11.5916 -85.9683 131° Southeast  Level FlightAware
Tue 03:02:00 AM 11.5029 -85.8652 131° Southeast  Level FlightAware
Tue 03:03:00 AM 11.4142 -85.7622 131° Southeast  Level FlightAware
Tue 03:04:00 AM 11.3255 -85.6593 131° Southeast  Level FlightAware
Tue 03:05:00 AM 11.2367 -85.5564 131° Southeast  Level FlightAware
Tue 03:06:00 AM 11.1480 -85.4536 131° Southeast  Level FlightAware
Tue 03:07:00 AM 11.0591 -85.3508 131° Southeast  Level FlightAware
Tue 03:08:00 AM 10.9703 -85.2481 131° Southeast  Level FlightAware
Tue 03:09:00 AM 10.8813 -85.1455 131° Southeast  Level FlightAware
Tue 03:10:00 AM 10.7924 -85.0429 131° Southeast  Level FlightAware
Tue 03:11:00 AM 10.7034 -84.9404 131° Southeast  Level FlightAware
Tue 03:12:00 AM 10.6144 -84.8380 131° Southeast  Level FlightAware
Tue 03:13:00 AM 10.5254 -84.7356 131° Southeast  Level FlightAware
Tue 03:14:00 AM 10.4363 -84.6332 132° Southeast  Level FlightAware
Tue 03:15:00 AM 10.3472 -84.5310 132° Southeast  Level FlightAware
Tue 03:16:00 AM 10.2581 -84.4287 132° Southeast  Level FlightAware
Tue 03:17:00 AM 10.1689 -84.3266 132° Southeast  Level FlightAware
Tue 03:18:00 AM 10.0797 -84.2245 132° Southeast  Level FlightAware
Tue 03:19:00 AM 9.9905 -84.1224 132° Southeast  Level FlightAware
Tue 03:20:00 AM 9.9012 -84.0204 132° Southeast  Level FlightAware
Tue 03:21:00 AM 9.8123 -83.9182 131° Southeast  Level FlightAware
Tue 03:22:00 AM 9.7233 -83.8160 131° Southeast  Level FlightAware
Tue 03:23:00 AM 9.6344 -83.7138 131° Southeast  Level FlightAware
Tue 03:24:00 AM 9.5454 -83.6117 131° Southeast  Level FlightAware
Tue 03:25:00 AM 9.4564 -83.5096 131° Southeast  Level FlightAware
Tue 03:26:00 AM 9.3673 -83.4076 131° Southeast  Level FlightAware
Tue 03:27:00 AM 9.2782 -83.3057 132° Southeast  Level FlightAware
Tue 03:28:00 AM 9.1891 -83.2038 132° Southeast  Level FlightAware
Tue 03:29:00 AM 9.1000 -83.1019 132° Southeast  Level FlightAware
Tue 03:30:00 AM 9.0108 -83.0001 132° Southeast  Level FlightAware
Tue 03:31:00 AM 8.9216 -82.8983 132° Southeast  Level FlightAware
Tue 03:32:00 AM 8.8325 -82.7965 131° Southeast  Level FlightAware
Tue 03:33:00 AM 8.7436 -82.6945 131° Southeast  Level FlightAware
Tue 03:34:00 AM 8.6547 -82.5926 131° Southeast  Level FlightAware
Tue 03:35:00 AM 8.5658 -82.4907 131° Southeast  Level FlightAware
Tue 03:36:00 AM 8.4769 -82.3888 131° Southeast  Level FlightAware
Tue 03:37:00 AM 8.3879 -82.2870 131° Southeast  Level FlightAware
Tue 03:38:00 AM 8.2989 -82.1852 131° Southeast  Level FlightAware
Tue 03:39:00 AM 8.2099 -82.0835 131° Southeast  Level FlightAware
Tue 03:40:00 AM 8.1208 -81.9818 131° Southeast  Level FlightAware
Tue 03:41:00 AM 8.0318 -81.8802 132° Southeast  Level FlightAware
Tue 03:42:00 AM 7.9427 -81.7786 132° Southeast  Level FlightAware
Tue 03:43:00 AM 7.8535 -81.6771 132° Southeast  Level FlightAware
Tue 03:44:00 AM 7.7644 -81.5756 132° Southeast  Level FlightAware
Tue 03:45:00 AM 7.6752 -81.4742 132° Southeast  Level FlightAware
Tue 03:46:00 AM 7.5855 -81.3732 132° Southeast  Level FlightAware
Tue 03:47:00 AM 7.4959 -81.2722 132° Southeast  Level FlightAware
Tue 03:48:00 AM 7.4062 -81.1712 132° Southeast  Level FlightAware
Tue 03:49:00 AM 7.3165 -81.0704 132° Southeast  Level FlightAware
Tue 03:50:00 AM 7.2268 -80.9695 132° Southeast  Level FlightAware
Tue 03:51:00 AM 7.1370 -80.8687 132° Southeast  Level FlightAware
Tue 03:52:00 AM 7.0472 -80.7679 132° Southeast  Level FlightAware
Tue 03:53:00 AM 6.9574 -80.6672 132° Southeast  Level FlightAware
Tue 03:54:00 AM 6.8676 -80.5665 132° Southeast  Level FlightAware
Tue 03:55:00 AM 6.7778 -80.4659 132° Southeast  Level FlightAware
Tue 03:56:00 AM 6.6879 -80.3652 132° Southeast  Level FlightAware
Tue 03:57:00 AM 6.5980 -80.2647 132° Southeast  Level FlightAware
Tue 03:58:00 AM 6.5081 -80.1641 132° Southeast  Level FlightAware
Tue 03:59:00 AM 6.4182 -80.0636 132° Southeast  Level FlightAware
Tue 04:00:00 AM 6.3283 -79.9632 132° Southeast  Level FlightAware
Tue 04:01:00 AM 6.2383 -79.8627 132° Southeast  Level FlightAware
Tue 04:02:00 AM 6.1483 -79.7623 132° Southeast  Level FlightAware
Tue 04:03:00 AM 6.0583 -79.6620 132° Southeast  Level FlightAware
Tue 04:04:00 AM 5.9683 -79.5616 132° Southeast  Level FlightAware
Tue 04:05:00 AM 5.8783 -79.4613 132° Southeast  Level FlightAware
Tue 04:06:00 AM 5.7882 -79.3611 132° Southeast  Level FlightAware
Tue 04:07:00 AM 5.6982 -79.2608 132° Southeast  Level FlightAware
Tue 04:08:00 AM 5.6081 -79.1606 132° Southeast  Level FlightAware
Tue 04:09:00 AM 5.5180 -79.0605 132° Southeast  Level FlightAware
Tue 04:10:00 AM 5.4279 -78.9603 132° Southeast  Level FlightAware
Tue 04:11:00 AM 5.3377 -78.8602 132° Southeast  Level FlightAware
Tue 04:12:00 AM 5.2476 -78.7601 132° Southeast  Level FlightAware
Tue 04:13:00 AM 5.1574 -78.6601 132° Southeast  Level FlightAware
Tue 04:14:00 AM 5.0672 -78.5601 132° Southeast  Level FlightAware
Tue 04:15:00 AM 4.9770 -78.4601 132° Southeast  Level FlightAware
Tue 04:16:00 AM 4.8868 -78.3601 132° Southeast  Level FlightAware
Tue 04:17:00 AM 4.7966 -78.2601 132° Southeast  Level FlightAware
Tue 04:18:00 AM 4.7063 -78.1602 132° Southeast  Level FlightAware
Tue 04:19:00 AM 4.6161 -78.0603 132° Southeast  Level FlightAware
Tue 04:20:00 AM 4.5258 -77.9605 132° Southeast  Level FlightAware
Tue 04:21:00 AM 4.4355 -77.8606 132° Southeast  Level FlightAware
Tue 04:22:00 AM 4.3452 -77.7608 132° Southeast  Level FlightAware
Tue 04:23:00 AM 4.2549 -77.6610 132° Southeast  Level FlightAware
Tue 04:24:00 AM 4.1646 -77.5612 132° Southeast  Level FlightAware
Tue 04:25:00 AM 4.0743 -77.4615 132° Southeast  Level FlightAware
Tue 04:26:00 AM 3.9839 -77.3618 132° Southeast  Level FlightAware
Tue 04:27:00 AM 3.8935 -77.2621 132° Southeast  Level FlightAware
Tue 04:28:00 AM 3.8032 -77.1624 132° Southeast  Level FlightAware
Tue 04:29:00 AM 3.7128 -77.0627 132° Southeast  Level FlightAware
Tue 04:30:00 AM 3.6224 -76.9631 132° Southeast  Level FlightAware
Tue 04:31:00 AM 3.5319 -76.8635 132° Southeast  Level FlightAware
Tue 04:32:00 AM 3.4413 -76.7642 132° Southeast  Level FlightAware
Tue 04:33:00 AM 3.3506 -76.6648 132° Southeast  Level FlightAware
Tue 04:34:00 AM 3.2599 -76.5655 132° Southeast  Level FlightAware
Tue 04:35:00 AM 3.1692 -76.4661 132° Southeast  Level FlightAware
Tue 04:36:00 AM 3.0785 -76.3669 132° Southeast  Level FlightAware
Tue 04:37:00 AM 2.9878 -76.2676 132° Southeast  Level FlightAware
Tue 04:38:00 AM 2.8970 -76.1683 132° Southeast  Level FlightAware
Tue 04:39:00 AM 2.8063 -76.0691 132° Southeast  Level FlightAware
Tue 04:40:00 AM 2.7156 -75.9698 132° Southeast  Level FlightAware
Tue 04:41:00 AM 2.6248 -75.8706 132° Southeast  Level FlightAware
Tue 04:42:00 AM 2.5341 -75.7714 132° Southeast  Level FlightAware
Tue 04:43:00 AM 2.4433 -75.6722 132° Southeast  Level FlightAware
Tue 04:44:00 AM 2.3525 -75.5730 132° Southeast  Level FlightAware
Tue 04:45:00 AM 2.2618 -75.4738 132° Southeast  Level FlightAware
Tue 04:46:00 AM 2.1710 -75.3747 132° Southeast  Level FlightAware
Tue 04:47:00 AM 2.0802 -75.2756 133° Southeast  Level FlightAware
Tue 04:48:00 AM 1.9894 -75.1764 133° Southeast  Level FlightAware
Tue 04:49:00 AM 1.8986 -75.0773 133° Southeast  Level FlightAware
Tue 04:50:00 AM 1.8078 -74.9782 133° Southeast  Level FlightAware
Tue 04:51:00 AM 1.7175 -74.8786 132° Southeast  Level FlightAware
Tue 04:52:00 AM 1.6275 -74.7787 132° Southeast  Level FlightAware
Tue 04:53:00 AM 1.5376 -74.6788 132° Southeast  Level FlightAware
Tue 04:54:00 AM 1.4477 -74.5789 132° Southeast  Level FlightAware
Tue 04:55:00 AM 1.3578 -74.4791 132° Southeast  Level FlightAware
Tue 04:56:00 AM 1.2678 -74.3792 132° Southeast  Level FlightAware
Tue 04:57:00 AM 1.1779 -74.2793 132° Southeast  Level FlightAware
Tue 04:58:00 AM 1.0879 -74.1795 132° Southeast  Level FlightAware
Tue 04:59:00 AM 0.9980 -74.0796 132° Southeast  Level FlightAware
Tue 05:00:00 AM 0.9080 -73.9798 132° Southeast  Level FlightAware
Tue 05:01:00 AM 0.8181 -73.8799 132° Southeast  Level FlightAware
Tue 05:02:00 AM 0.7281 -73.7801 132° Southeast  Level FlightAware
Tue 05:03:00 AM 0.6381 -73.6802 132° Southeast  Level FlightAware
Tue 05:04:00 AM 0.5482 -73.5804 132° Southeast  Level FlightAware
Tue 05:05:00 AM 0.4582 -73.4806 132° Southeast  Level FlightAware
Tue 05:06:00 AM 0.3683 -73.3807 132° Southeast  Level FlightAware
Tue 05:07:00 AM 0.2783 -73.2809 132° Southeast  Level FlightAware
Tue 05:08:00 AM 0.1883 -73.1811 132° Southeast  Level FlightAware
Tue 05:09:00 AM 0.0983 -73.0813 132° Southeast  Level FlightAware
Tue 05:10:00 AM 0.0084 -72.9814 132° Southeast  Level FlightAware
Tue 05:11:00 AM -0.0829 -72.8828 134° Southeast  Level FlightAware
Tue 05:12:00 AM -0.1765 -72.7864 134° Southeast  Level FlightAware
Tue 05:13:00 AM -0.2701 -72.6900 134° Southeast  Level FlightAware
Tue 05:14:00 AM -0.3637 -72.5936 134° Southeast  Level FlightAware
Tue 05:15:00 AM -0.4573 -72.4971 134° Southeast  Level FlightAware
Tue 05:16:00 AM -0.5509 -72.4007 134° Southeast  Level FlightAware
Tue 05:17:00 AM -0.6445 -72.3043 134° Southeast  Level FlightAware
Tue 05:18:00 AM -0.7381 -72.2079 134° Southeast  Level FlightAware
Tue 05:19:00 AM -0.8317 -72.1114 134° Southeast  Level FlightAware
Tue 05:20:00 AM -0.9253 -72.0150 134° Southeast  Level FlightAware
Tue 05:21:00 AM -1.0189 -71.9185 134° Southeast  Level FlightAware
Tue 05:22:00 AM -1.1125 -71.8221 134° Southeast  Level FlightAware
Tue 05:23:00 AM -1.2061 -71.7256 134° Southeast  Level FlightAware
Tue 05:24:00 AM -1.2996 -71.6292 134° Southeast  Level FlightAware
Tue 05:25:00 AM -1.3932 -71.5327 134° Southeast  Level FlightAware
Tue 05:26:00 AM -1.4868 -71.4362 134° Southeast  Level FlightAware
Tue 05:27:00 AM -1.5804 -71.3397 134° Southeast  Level FlightAware
Tue 05:28:00 AM -1.6739 -71.2432 134° Southeast  Level FlightAware
Tue 05:29:00 AM -1.7675 -71.1468 134° Southeast  Level FlightAware
Tue 05:30:00 AM -1.8611 -71.0502 134° Southeast  Level FlightAware
Tue 05:31:00 AM -1.9546 -70.9537 134° Southeast  Level FlightAware
Tue 05:32:00 AM -2.0482 -70.8572 134° Southeast  Level FlightAware
Tue 05:33:00 AM -2.1417 -70.7606 134° Southeast  Level FlightAware
Tue 05:34:00 AM -2.2352 -70.6641 134° Southeast  Level FlightAware
Tue 05:35:00 AM -2.3288 -70.5675 134° Southeast  Level FlightAware
Tue 05:36:00 AM -2.4223 -70.4709 134° Southeast  Level FlightAware
Tue 05:37:00 AM -2.5158 -70.3743 134° Southeast  Level FlightAware
Tue 05:38:00 AM -2.6093 -70.2777 134° Southeast  Level FlightAware
Tue 05:39:00 AM -2.7028 -70.1811 134° Southeast  Level FlightAware
Tue 05:40:00 AM -2.7963 -70.0845 134° Southeast  Level FlightAware
Tue 05:41:00 AM -2.8898 -69.9878 134° Southeast  Level FlightAware
Tue 05:42:00 AM -2.9833 -69.8911 134° Southeast  Level FlightAware
Tue 05:43:00 AM -3.0768 -69.7944 134° Southeast  Level FlightAware
Tue 05:44:00 AM -3.1702 -69.6977 134° Southeast  Level FlightAware
Tue 05:45:00 AM -3.2637 -69.6010 134° Southeast  Level FlightAware
Tue 05:46:00 AM -3.3571 -69.5043 134° Southeast  Level FlightAware
Tue 05:47:00 AM -3.4505 -69.4075 134° Southeast  Level FlightAware
Tue 05:48:00 AM -3.5440 -69.3108 134° Southeast  Level FlightAware
Tue 05:49:00 AM -3.6374 -69.2140 134° Southeast  Level FlightAware
Tue 05:50:00 AM -3.7308 -69.1171 134° Southeast  Level FlightAware
Tue 05:51:00 AM -3.8242 -69.0203 134° Southeast  Level FlightAware
Tue 05:52:00 AM -3.9175 -68.9234 134° Southeast  Level FlightAware
Tue 05:53:00 AM -4.0109 -68.8266 134° Southeast  Level FlightAware
Tue 05:54:00 AM -4.1043 -68.7297 134° Southeast  Level FlightAware
Tue 05:55:00 AM -4.1976 -68.6327 134° Southeast  Level FlightAware
Tue 05:56:00 AM -4.2909 -68.5358 134° Southeast  Level FlightAware
Tue 05:57:00 AM -4.3843 -68.4388 134° Southeast  Level FlightAware
Tue 05:58:00 AM -4.4776 -68.3418 134° Southeast  Level FlightAware
Tue 05:59:00 AM -4.5709 -68.2448 134° Southeast  Level FlightAware
Tue 06:00:00 AM -4.6642 -68.1477 134° Southeast  Level FlightAware
Tue 06:01:00 AM -4.7574 -68.0507 134° Southeast  Level FlightAware
Tue 06:02:00 AM -4.8507 -67.9536 134° Southeast  Level FlightAware
Tue 06:03:00 AM -4.9439 -67.8565 134° Southeast  Level FlightAware
Tue 06:04:00 AM -5.0372 -67.7593 134° Southeast  Level FlightAware
Tue 06:05:00 AM -5.1304 -67.6621 134° Southeast  Level FlightAware
Tue 06:06:00 AM -5.2236 -67.5649 134° Southeast  Level FlightAware
Tue 06:07:00 AM -5.3168 -67.4677 134° Southeast  Level FlightAware
Tue 06:08:00 AM -5.4099 -67.3704 134° Southeast  Level FlightAware
Tue 06:09:00 AM -5.5031 -67.2731 134° Southeast  Level FlightAware
Tue 06:10:00 AM -5.5962 -67.1758 134° Southeast  Level FlightAware
Tue 06:11:00 AM -5.6893 -67.0784 134° Southeast  Level FlightAware
Tue 06:12:00 AM -5.7825 -66.9810 134° Southeast  Level FlightAware
Tue 06:13:00 AM -5.8755 -66.8836 134° Southeast  Level FlightAware
Tue 06:14:00 AM -5.9686 -66.7861 134° Southeast  Level FlightAware
Tue 06:15:00 AM -6.0617 -66.6887 134° Southeast  Level FlightAware
Tue 06:16:00 AM -6.1547 -66.5911 134° Southeast  Level FlightAware
Tue 06:17:00 AM -6.2477 -66.4936 134° Southeast  Level FlightAware
Tue 06:18:00 AM -6.3407 -66.3960 134° Southeast  Level FlightAware
Tue 06:19:00 AM -6.4337 -66.2984 134° Southeast  Level FlightAware
Tue 06:20:00 AM -6.5267 -66.2007 134° Southeast  Level FlightAware
Tue 06:21:00 AM -6.6196 -66.1030 134° Southeast  Level FlightAware
Tue 06:22:00 AM -6.7126 -66.0053 134° Southeast  Level FlightAware
Tue 06:23:00 AM -6.8055 -65.9075 134° Southeast  Level FlightAware
Tue 06:24:00 AM -6.8984 -65.8097 134° Southeast  Level FlightAware
Tue 06:25:00 AM -6.9912 -65.7119 134° Southeast  Level FlightAware
Tue 06:26:00 AM -7.0841 -65.6140 134° Southeast  Level FlightAware
Tue 06:27:00 AM -7.1769 -65.5160 134° Southeast  Level FlightAware
Tue 06:28:00 AM -7.2697 -65.4181 134° Southeast  Level FlightAware
Tue 06:29:00 AM -7.3625 -65.3201 134° Southeast  Level FlightAware
Tue 06:30:00 AM -7.4553 -65.2220 134° Southeast  Level FlightAware
Tue 06:31:00 AM -7.5480 -65.1239 134° Southeast  Level FlightAware
Tue 06:32:00 AM -7.6407 -65.0258 134° Southeast  Level FlightAware
Tue 06:33:00 AM -7.7334 -64.9276 134° Southeast  Level FlightAware
Tue 06:34:00 AM -7.8261 -64.8294 134° Southeast  Level FlightAware
Tue 06:35:00 AM -7.9188 -64.7311 134° Southeast  Level FlightAware
Tue 06:36:00 AM -8.0114 -64.6328 134° Southeast  Level FlightAware
Tue 06:37:00 AM -8.1040 -64.5345 134° Southeast  Level FlightAware
Tue 06:38:00 AM -8.1966 -64.4361 134° Southeast  Level FlightAware
Tue 06:39:00 AM -8.2892 -64.3376 134° Southeast  Level FlightAware
Tue 06:40:00 AM -8.3817 -64.2392 134° Southeast  Level FlightAware
Tue 06:41:00 AM -8.4742 -64.1406 134° Southeast  Level FlightAware
Tue 06:42:00 AM -8.5667 -64.0421 133° Southeast  Level FlightAware
Tue 06:43:00 AM -8.6592 -63.9434 133° Southeast  Level FlightAware
Tue 06:44:00 AM -8.7516 -63.8447 133° Southeast  Level FlightAware
Tue 06:45:00 AM -8.8440 -63.7460 133° Southeast  Level FlightAware
Tue 06:46:00 AM -8.9364 -63.6472 133° Southeast  Level FlightAware
Tue 06:47:00 AM -9.0288 -63.5484 133° Southeast  Level FlightAware
Tue 06:48:00 AM -9.1211 -63.4495 133° Southeast  Level FlightAware
Tue 06:49:00 AM -9.2134 -63.3506 133° Southeast  Level FlightAware
Tue 06:50:00 AM -9.3057 -63.2516 133° Southeast  Level FlightAware
Tue 06:51:00 AM -9.3979 -63.1526 133° Southeast  Level FlightAware
Tue 06:52:00 AM -9.4901 -63.0535 133° Southeast  Level FlightAware
Tue 06:53:00 AM -9.5823 -62.9544 133° Southeast  Level FlightAware
Tue 06:54:00 AM -9.6745 -62.8552 133° Southeast  Level FlightAware
Tue 06:55:00 AM -9.7667 -62.7559 133° Southeast  Level FlightAware
Tue 06:56:00 AM -9.8588 -62.6566 133° Southeast  Level FlightAware
Tue 06:57:00 AM -9.9508 -62.5573 133° Southeast  Level FlightAware
Tue 06:58:00 AM -10.0429 -62.4579 133° Southeast  Level FlightAware
Tue 06:59:00 AM -10.1349 -62.3584 133° Southeast  Level FlightAware
Tue 07:00:00 AM -10.2269 -62.2589 133° Southeast  Level FlightAware
Tue 07:01:00 AM -10.3189 -62.1593 133° Southeast  Level FlightAware
Tue 07:02:00 AM -10.4108 -62.0596 133° Southeast  Level FlightAware
Tue 07:03:00 AM -10.5027 -61.9599 133° Southeast  Level FlightAware
Tue 07:04:00 AM -10.5946 -61.8602 133° Southeast  Level FlightAware
Tue 07:05:00 AM -10.6864 -61.7603 133° Southeast  Level FlightAware
Tue 07:06:00 AM -10.7782 -61.6605 133° Southeast  Level FlightAware
Tue 07:07:00 AM -10.8700 -61.5605 133° Southeast  Level FlightAware
Tue 07:08:00 AM -10.9617 -61.4605 133° Southeast  Level FlightAware
Tue 07:09:00 AM -11.0534 -61.3605 133° Southeast  Level FlightAware
Tue 07:10:00 AM -11.1451 -61.2603 133° Southeast  Level FlightAware
Tue 07:11:00 AM -11.2368 -61.1601 133° Southeast  Level FlightAware
Tue 07:12:00 AM -11.3284 -61.0599 133° Southeast  Level FlightAware
Tue 07:13:00 AM -11.4199 -60.9596 133° Southeast  Level FlightAware
Tue 07:14:00 AM -11.5115 -60.8592 133° Southeast  Level FlightAware
Tue 07:15:00 AM -11.6030 -60.7588 133° Southeast  Level FlightAware
Tue 07:16:00 AM -11.6945 -60.6582 133° Southeast  Level FlightAware
Tue 07:17:00 AM -11.7859 -60.5577 133° Southeast  Level FlightAware
Tue 07:18:00 AM -11.8773 -60.4570 133° Southeast  Level FlightAware
Tue 07:19:00 AM -11.9687 -60.3563 133° Southeast  Level FlightAware
Tue 07:20:00 AM -12.0600 -60.2555 133° Southeast  Level FlightAware
Tue 07:21:00 AM -12.1513 -60.1547 133° Southeast  Level FlightAware
Tue 07:22:00 AM -12.2417 -60.0547 133° Southeast  Level FlightAware
Tue 07:23:00 AM -12.3320 -59.9547 133° Southeast  Level FlightAware
Tue 07:24:00 AM -12.4223 -59.8546 133° Southeast  Level FlightAware
Tue 07:25:00 AM -12.5126 -59.7545 133° Southeast  Level FlightAware
Tue 07:26:00 AM -12.6028 -59.6543 133° Southeast  Level FlightAware
Tue 07:27:00 AM -12.6930 -59.5540 133° Southeast  Level FlightAware
Tue 07:28:00 AM -12.7831 -59.4537 133° Southeast  Level FlightAware
Tue 07:29:00 AM -12.8732 -59.3532 133° Southeast  Level FlightAware
Tue 07:30:00 AM -12.9633 -59.2527 133° Southeast  Level FlightAware
Tue 07:31:00 AM -13.0533 -59.1522 133° Southeast  Level FlightAware
Tue 07:32:00 AM -13.1433 -59.0515 133° Southeast  Level FlightAware
Tue 07:33:00 AM -13.2333 -58.9508 133° Southeast  Level FlightAware
Tue 07:34:00 AM -13.3232 -58.8500 133° Southeast  Level FlightAware
Tue 07:35:00 AM -13.4130 -58.7491 132° Southeast  Level FlightAware
Tue 07:36:00 AM -13.5029 -58.6482 132° Southeast  Level FlightAware
Tue 07:37:00 AM -13.5927 -58.5472 132° Southeast  Level FlightAware
Tue 07:38:00 AM -13.6824 -58.4461 132° Southeast  Level FlightAware
Tue 07:39:00 AM -13.7721 -58.3449 132° Southeast  Level FlightAware
Tue 07:40:00 AM -13.8618 -58.2437 132° Southeast  Level FlightAware
Tue 07:41:00 AM -13.9514 -58.1423 132° Southeast  Level FlightAware
Tue 07:42:00 AM -14.0410 -58.0409 132° Southeast  Level FlightAware
Tue 07:43:00 AM -14.1306 -57.9394 132° Southeast  Level FlightAware
Tue 07:44:00 AM -14.2201 -57.8379 132° Southeast  Level FlightAware
Tue 07:45:00 AM -14.3095 -57.7362 132° Southeast  Level FlightAware
Tue 07:46:00 AM -14.3989 -57.6345 132° Southeast  Level FlightAware
Tue 07:47:00 AM -14.4883 -57.5327 132° Southeast  Level FlightAware
Tue 07:48:00 AM -14.5777 -57.4308 132° Southeast  Level FlightAware
Tue 07:49:00 AM -14.6669 -57.3288 132° Southeast  Level FlightAware
Tue 07:50:00 AM -14.7562 -57.2268 132° Southeast  Level FlightAware
Tue 07:51:00 AM -14.8454 -57.1246 132° Southeast  Level FlightAware
Tue 07:52:00 AM -14.9345 -57.0224 132° Southeast  Level FlightAware
Tue 07:53:00 AM -15.0236 -56.9201 132° Southeast  Level FlightAware
Tue 07:54:00 AM -15.1127 -56.8177 132° Southeast  Level FlightAware
Tue 07:55:00 AM -15.2017 -56.7152 132° Southeast  Level FlightAware
Tue 07:56:00 AM -15.2907 -56.6126 132° Southeast  Level FlightAware
Tue 07:57:00 AM -15.3796 -56.5100 132° Southeast  Level FlightAware
Tue 07:58:00 AM -15.4685 -56.4072 132° Southeast  Level FlightAware
Tue 07:59:00 AM -15.5573 -56.3044 132° Southeast  Level FlightAware
Tue 08:00:00 AM -15.6461 -56.2015 132° Southeast  Level FlightAware
Tue 08:01:00 AM -15.7348 -56.0985 132° Southeast  Level FlightAware
Tue 08:02:00 AM -15.8235 -55.9954 132° Southeast  Level FlightAware
Tue 08:03:00 AM -15.9121 -55.8922 132° Southeast  Level FlightAware
Tue 08:04:00 AM -16.0007 -55.7889 132° Southeast  Level FlightAware
Tue 08:05:00 AM -16.0892 -55.6855 132° Southeast  Level FlightAware
Tue 08:06:00 AM -16.1777 -55.5821 132° Southeast  Level FlightAware
Tue 08:07:00 AM -16.2661 -55.4785 132° Southeast  Level FlightAware
Tue 08:08:00 AM -16.3545 -55.3749 132° Southeast  Level FlightAware
Tue 08:09:00 AM -16.4429 -55.2711 132° Southeast  Level FlightAware
Tue 08:10:00 AM -16.5311 -55.1673 132° Southeast  Level FlightAware
Tue 08:11:00 AM -16.6194 -55.0634 132° Southeast  Level FlightAware
Tue 08:12:00 AM -16.7076 -54.9593 132° Southeast  Level FlightAware
Tue 08:13:00 AM -16.7957 -54.8552 131° Southeast  Level FlightAware
Tue 08:14:00 AM -16.8838 -54.7510 131° Southeast  Level FlightAware
Tue 08:15:00 AM -16.9718 -54.6466 131° Southeast  Level FlightAware
Tue 08:16:00 AM -17.0597 -54.5422 131° Southeast  Level FlightAware
Tue 08:17:00 AM -17.1477 -54.4377 131° Southeast  Level FlightAware
Tue 08:18:00 AM -17.2355 -54.3331 131° Southeast  Level FlightAware
Tue 08:19:00 AM -17.3233 -54.2284 131° Southeast  Level FlightAware
Tue 08:20:00 AM -17.4111 -54.1236 131° Southeast  Level FlightAware
Tue 08:21:00 AM -17.4988 -54.0187 131° Southeast  Level FlightAware
Tue 08:22:00 AM -17.5864 -53.9137 131° Southeast  Level FlightAware
Tue 08:23:00 AM -17.6740 -53.8085 131° Southeast  Level FlightAware
Tue 08:24:00 AM -17.7616 -53.7033 131° Southeast  Level FlightAware
Tue 08:25:00 AM -17.8490 -53.5980 131° Southeast  Level FlightAware
Tue 08:26:00 AM -17.9364 -53.4926 131° Southeast  Level FlightAware
Tue 08:27:00 AM -18.0238 -53.3870 131° Southeast  Level FlightAware
Tue 08:28:00 AM -18.1111 -53.2814 131° Southeast  Level FlightAware
Tue 08:29:00 AM -18.1984 -53.1757 131° Southeast  Level FlightAware
Tue 08:30:00 AM -18.2856 -53.0698 131° Southeast  Level FlightAware
Tue 08:31:00 AM -18.3727 -52.9638 131° Southeast  Level FlightAware
Tue 08:32:00 AM -18.4598 -52.8578 131° Southeast  Level FlightAware
Tue 08:33:00 AM -18.5468 -52.7516 131° Southeast  Level FlightAware
Tue 08:34:00 AM -18.6337 -52.6453 131° Southeast  Level FlightAware
Tue 08:35:00 AM -18.7206 -52.5390 131° Southeast  Level FlightAware
Tue 08:36:00 AM -18.8074 -52.4325 131° Southeast  Level FlightAware
Tue 08:37:00 AM -18.8942 -52.3259 131° Southeast  Level FlightAware
Tue 08:38:00 AM -18.9809 -52.2192 131° Southeast  Level FlightAware
Tue 08:39:00 AM -19.0676 -52.1123 131° Southeast  Level FlightAware
Tue 08:40:00 AM -19.1542 -52.0054 131° Southeast  Level FlightAware
Tue 08:41:00 AM -19.2407 -51.8983 131° Southeast  Level FlightAware
Tue 08:42:00 AM -19.3272 -51.7912 131° Southeast  Level FlightAware
Tue 08:43:00 AM -19.4136 -51.6839 131° Southeast  Level FlightAware
Tue 08:44:00 AM -19.4999 -51.5765 130° Southeast  Level FlightAware
Tue 08:45:00 AM -19.5862 -51.4690 130° Southeast  Level FlightAware
Tue 08:46:00 AM -19.6724 -51.3614 130° Southeast  Level FlightAware
Tue 08:47:00 AM -19.7586 -51.2537 130° Southeast  Level FlightAware
Tue 08:48:00 AM -19.8446 -51.1458 130° Southeast  Level FlightAware
Tue 08:49:00 AM -19.9307 -51.0378 130° Southeast  Level FlightAware
Tue 08:50:00 AM -20.0166 -50.9297 130° Southeast  Level FlightAware
Tue 08:51:00 AM -20.1025 -50.8215 130° Southeast  Level FlightAware
Tue 08:52:00 AM -20.1887 -50.7127 130° Southeast  Level FlightAware
Tue 08:53:00 AM -20.2749 -50.6038 130° Southeast  Level FlightAware
Tue 08:54:00 AM -20.3609 -50.4947 130° Southeast  Level FlightAware
Tue 08:55:00 AM -20.4469 -50.3856 130° Southeast  Level FlightAware
Tue 08:56:00 AM -20.5329 -50.2763 130° Southeast  Level FlightAware
Tue 08:57:00 AM -20.6187 -50.1669 130° Southeast  Level FlightAware
Tue 08:58:00 AM -20.7045 -50.0573 130° Southeast  Level FlightAware
Tue 08:59:00 AM -20.7903 -49.9476 130° Southeast  Level FlightAware
Tue 09:00:00 AM -20.8759 -49.8378 130° Southeast  Level FlightAware
Tue 09:01:00 AM -20.9615 -49.7279 130° Southeast  Level FlightAware
Tue 09:02:00 AM -21.0471 -49.6179 130° Southeast  Level FlightAware
Tue 09:03:00 AM -21.1325 -49.5077 130° Southeast  Level FlightAware
Tue 09:04:00 AM -21.2179 -49.3974 130° Southeast  Level FlightAware
Tue 09:05:00 AM -21.3032 -49.2870 130° Southeast  Level FlightAware
Tue 09:06:00 AM -21.3884 -49.1765 130° Southeast  Level FlightAware
Tue 09:07:00 AM -21.4736 -49.0658 130° Southeast  Level FlightAware
Tue 09:08:00 AM -21.5587 -48.9550 130° Southeast  Level FlightAware
Tue 09:09:00 AM -21.6437 -48.8440 130° Southeast  Level FlightAware
Tue 09:10:00 AM -21.7286 -48.7330 129° Southeast  Level FlightAware
Tue 09:11:00 AM -21.8135 -48.6218 129° Southeast  Level FlightAware
Tue 09:12:00 AM -21.8983 -48.5104 129° Southeast  Level FlightAware
Tue 09:13:00 AM -21.9830 -48.3990 129° Southeast  Level FlightAware
Tue 09:14:00 AM -22.0677 -48.2874 129° Southeast  Level FlightAware
Tue 09:15:00 AM -22.1470 -48.1712 126° Southeast  Level FlightAware
Tue 09:16:00 AM -22.2286 -48.0570 126° Southeast  Level FlightAware
Tue 09:17:00 AM -22.3155 -47.9473 131° Southeast  Level FlightAware
Tue 09:18:00 AM -22.4016 -47.8368 129° Southeast  Level FlightAware
Tue 09:19:00 AM -22.4859 -47.7245 129° Southeast  Level FlightAware
Tue 09:20:00 AM -22.5701 -47.6121 130° Southeast  Level FlightAware
Tue 09:21:00 AM -22.6558 -47.5009 130° Southeast  Level FlightAware
Tue 09:22:00 AM -22.7408 -47.3892 127° Southeast  Level FlightAware
Tue 09:23:00 AM -22.8208 -47.2730 127° Southeast  Level FlightAware
Tue 09:24:00 AM -22.9006 -47.1567 127° Southeast  Level FlightAware
Tue 09:25:00 AM -22.9903 -47.0493 134° Southeast  Level FlightAware
Tue 09:26:00 AM -23.0775 -46.9394 128° Southeast  Level FlightAware
Tue 09:27:00 AM -23.1604 -46.8253 128° Southeast  Level FlightAware
Tue 09:28:00 AM -23.2413 -46.7110 122° Southeast  Level FlightAware

Login

Don't have an account? Register now (free) for customized features, flight alerts, and more!